<?xml version="1.0" encoding="UTF-8" standalone="no" ?>
<gpx xmlns="http://www.topografix.com/GPX/1/1" xmlns:xsi="http://www.w3.org/2001/XMLSchema-instance" xsi:schemaLocation="http://www.topografix.com/GPX/1/1 http://www.topografix.com/GPX/1/1/gpx.xsd" version="1.1" creator="VisuGPX - https://www.visugpx.com">
  <metadata>
    <name>CANADA - RAQUETTES - La Banic - Sainte Catherine de la Jacques Cartier</name>
    <desc><![CDATA[Domaine de la station touristique Duchesnay]]></desc>
  </metadata>
  <wpt lat="46.86914" lon="-71.64209">
    <ele>194</ele>
    <name><![CDATA[Base de départ]]></name>
    <desc><![CDATA[22-MAR-16 12:54:15]]></desc>
    <cmt><![CDATA[22-MAR-16 12:54:15]]></cmt>
  </wpt>
  <wpt lat="46.8696" lon="-71.64299">
    <name><![CDATA[Horizon]]></name>
  </wpt>
  <wpt lat="46.88401" lon="-71.65311">
    <name><![CDATA[refuge de la Halte]]></name>
  </wpt>
  <wpt lat="46.88039" lon="-71.67161">
    <ele>240</ele>
    <name><![CDATA[Refuge la Bicoque]]></name>
    <desc><![CDATA[24-MAR-16 19:24:23]]></desc>
    <cmt><![CDATA[24-MAR-16 19:24:23]]></cmt>
  </wpt>
  <trk>
    <name><![CDATA[ACTIVE LOG 006]]></name>
    <trkseg>
      <trkpt lat="46.86954" lon="-71.64298">
        <ele>193.3623046875</ele>
        <time>2016-03-24T17:34:18Z</time>
      </trkpt>
      <trkpt lat="46.86954" lon="-71.64298">
        <ele>193.3623046875</ele>
        <time>2016-03-24T17:34:19Z</time>
      </trkpt>
      <trkpt lat="46.86955" lon="-71.643">
        <ele>193.3623046875</ele>
        <time>2016-03-24T17:34:41Z</time>
      </trkpt>
      <trkpt lat="46.86958" lon="-71.64303">
        <ele>193.84301757812</ele>
        <time>2016-03-24T17:34:55Z</time>
      </trkpt>
      <trkpt lat="46.86961" lon="-71.64318">
        <ele>193.84301757812</ele>
        <time>2016-03-24T17:35:11Z</time>
      </trkpt>
      <trkpt lat="46.8697" lon="-71.64338">
        <ele>195.765625</ele>
        <time>2016-03-24T17:35:31Z</time>
      </trkpt>
      <trkpt lat="46.86979" lon="-71.64347">
        <ele>197.68823242188</ele>
        <time>2016-03-24T17:35:46Z</time>
      </trkpt>
      <trkpt lat="46.86989" lon="-71.64353">
        <ele>200.09167480469</ele>
        <time>2016-03-24T17:36:01Z</time>
      </trkpt>
      <trkpt lat="46.87001" lon="-71.64357">
        <ele>202.01428222656</ele>
        <time>2016-03-24T17:36:14Z</time>
      </trkpt>
      <trkpt lat="46.8701" lon="-71.64375">
        <ele>202.49487304688</ele>
        <time>2016-03-24T17:36:32Z</time>
      </trkpt>
      <trkpt lat="46.87014" lon="-71.64398">
        <ele>202.49487304688</ele>
        <time>2016-03-24T17:36:50Z</time>
      </trkpt>
      <trkpt lat="46.87017" lon="-71.64426">
        <ele>202.49487304688</ele>
        <time>2016-03-24T17:37:09Z</time>
      </trkpt>
      <trkpt lat="46.87022" lon="-71.64449">
        <ele>203.45617675781</ele>
        <time>2016-03-24T17:37:25Z</time>
      </trkpt>
      <trkpt lat="46.87029" lon="-71.64476">
        <ele>204.41748046875</ele>
        <time>2016-03-24T17:37:42Z</time>
      </trkpt>
      <trkpt lat="46.87035" lon="-71.64496">
        <ele>204.89807128906</ele>
        <time>2016-03-24T17:37:57Z</time>
      </trkpt>
      <trkpt lat="46.87034" lon="-71.64504">
        <ele>204.41748046875</ele>
        <time>2016-03-24T17:38:01Z</time>
      </trkpt>
      <trkpt lat="46.87034" lon="-71.64523">
        <ele>204.41748046875</ele>
        <time>2016-03-24T17:38:12Z</time>
      </trkpt>
      <trkpt lat="46.87039" lon="-71.64557">
        <ele>205.37878417969</ele>
        <time>2016-03-24T17:38:34Z</time>
      </trkpt>
      <trkpt lat="46.87046" lon="-71.64582">
        <ele>205.85949707031</ele>
        <time>2016-03-24T17:38:50Z</time>
      </trkpt>
      <trkpt lat="46.87051" lon="-71.64615">
        <ele>206.82067871094</ele>
        <time>2016-03-24T17:39:11Z</time>
      </trkpt>
      <trkpt lat="46.87053" lon="-71.64639">
        <ele>205.85949707031</ele>
        <time>2016-03-24T17:39:26Z</time>
      </trkpt>
      <trkpt lat="46.87052" lon="-71.64665">
        <ele>205.37878417969</ele>
        <time>2016-03-24T17:39:41Z</time>
      </trkpt>
      <trkpt lat="46.87059" lon="-71.64687">
        <ele>205.85949707031</ele>
        <time>2016-03-24T17:39:57Z</time>
      </trkpt>
      <trkpt lat="46.87071" lon="-71.64698">
        <ele>208.74340820312</ele>
        <time>2016-03-24T17:40:12Z</time>
      </trkpt>
      <trkpt lat="46.8708" lon="-71.6471">
        <ele>209.70483398438</ele>
        <time>2016-03-24T17:40:26Z</time>
      </trkpt>
      <trkpt lat="46.87094" lon="-71.64721">
        <ele>212.10803222656</ele>
        <time>2016-03-24T17:40:40Z</time>
      </trkpt>
      <trkpt lat="46.87102" lon="-71.64739">
        <ele>212.58862304688</ele>
        <time>2016-03-24T17:40:54Z</time>
      </trkpt>
      <trkpt lat="46.87109" lon="-71.6476">
        <ele>213.0693359375</ele>
        <time>2016-03-24T17:41:09Z</time>
      </trkpt>
      <trkpt lat="46.87116" lon="-71.64787">
        <ele>212.58862304688</ele>
        <time>2016-03-24T17:41:29Z</time>
      </trkpt>
      <trkpt lat="46.87128" lon="-71.64804">
        <ele>212.58862304688</ele>
        <time>2016-03-24T17:41:47Z</time>
      </trkpt>
      <trkpt lat="46.87131" lon="-71.64816">
        <ele>210.666015625</ele>
        <time>2016-03-24T17:41:57Z</time>
      </trkpt>
      <trkpt lat="46.87131" lon="-71.64825">
        <ele>209.70483398438</ele>
        <time>2016-03-24T17:42:04Z</time>
      </trkpt>
      <trkpt lat="46.87124" lon="-71.64848">
        <ele>205.85949707031</ele>
        <time>2016-03-24T17:42:21Z</time>
      </trkpt>
      <trkpt lat="46.87112" lon="-71.64858">
        <ele>202.97546386719</ele>
        <time>2016-03-24T17:42:38Z</time>
      </trkpt>
      <trkpt lat="46.87097" lon="-71.64862">
        <ele>199.61083984375</ele>
        <time>2016-03-24T17:42:55Z</time>
      </trkpt>
      <trkpt lat="46.87082" lon="-71.64874">
        <ele>196.24633789062</ele>
        <time>2016-03-24T17:43:14Z</time>
      </trkpt>
      <trkpt lat="46.87066" lon="-71.64872">
        <ele>193.84301757812</ele>
        <time>2016-03-24T17:43:31Z</time>
      </trkpt>
      <trkpt lat="46.87056" lon="-71.64866">
        <ele>190.958984375</ele>
        <time>2016-03-24T17:43:44Z</time>
      </trkpt>
      <trkpt lat="46.87041" lon="-71.64868">
        <ele>188.07507324219</ele>
        <time>2016-03-24T17:44:04Z</time>
      </trkpt>
      <trkpt lat="46.87034" lon="-71.64874">
        <ele>185.19116210938</ele>
        <time>2016-03-24T17:44:19Z</time>
      </trkpt>
      <trkpt lat="46.87028" lon="-71.64891">
        <ele>183.7490234375</ele>
        <time>2016-03-24T17:44:34Z</time>
      </trkpt>
      <trkpt lat="46.87022" lon="-71.64917">
        <ele>182.30712890625</ele>
        <time>2016-03-24T17:44:51Z</time>
      </trkpt>
      <trkpt lat="46.87023" lon="-71.64947">
        <ele>182.78784179688</ele>
        <time>2016-03-24T17:45:08Z</time>
      </trkpt>
      <trkpt lat="46.87021" lon="-71.64964">
        <ele>183.7490234375</ele>
        <time>2016-03-24T17:45:28Z</time>
      </trkpt>
      <trkpt lat="46.87022" lon="-71.64968">
        <ele>184.71057128906</ele>
        <time>2016-03-24T17:45:58Z</time>
      </trkpt>
      <trkpt lat="46.87019" lon="-71.64982">
        <ele>183.7490234375</ele>
        <time>2016-03-24T17:47:02Z</time>
      </trkpt>
      <trkpt lat="46.87027" lon="-71.64991">
        <ele>185.19116210938</ele>
        <time>2016-03-24T17:47:16Z</time>
      </trkpt>
      <trkpt lat="46.87036" lon="-71.65003">
        <ele>185.67175292969</ele>
        <time>2016-03-24T17:47:31Z</time>
      </trkpt>
      <trkpt lat="46.87048" lon="-71.65024">
        <ele>186.63317871094</ele>
        <time>2016-03-24T17:47:48Z</time>
      </trkpt>
      <trkpt lat="46.87056" lon="-71.6505">
        <ele>187.11376953125</ele>
        <time>2016-03-24T17:48:06Z</time>
      </trkpt>
      <trkpt lat="46.87061" lon="-71.65069">
        <ele>188.07507324219</ele>
        <time>2016-03-24T17:48:19Z</time>
      </trkpt>
      <trkpt lat="46.87058" lon="-71.65095">
        <ele>189.03637695312</ele>
        <time>2016-03-24T17:48:35Z</time>
      </trkpt>
      <trkpt lat="46.87067" lon="-71.65112">
        <ele>189.51696777344</ele>
        <time>2016-03-24T17:48:52Z</time>
      </trkpt>
      <trkpt lat="46.87075" lon="-71.65113">
        <ele>189.99768066406</ele>
        <time>2016-03-24T17:49:01Z</time>
      </trkpt>
      <trkpt lat="46.87087" lon="-71.65118">
        <ele>192.40112304688</ele>
        <time>2016-03-24T17:49:15Z</time>
      </trkpt>
      <trkpt lat="46.87101" lon="-71.65124">
        <ele>193.84301757812</ele>
        <time>2016-03-24T17:49:29Z</time>
      </trkpt>
      <trkpt lat="46.87104" lon="-71.65129">
        <ele>193.84301757812</ele>
        <time>2016-03-24T17:49:34Z</time>
      </trkpt>
      <trkpt lat="46.8711" lon="-71.6515">
        <ele>194.80432128906</ele>
        <time>2016-03-24T17:49:47Z</time>
      </trkpt>
      <trkpt lat="46.87111" lon="-71.65155">
        <ele>194.32373046875</ele>
        <time>2016-03-24T17:49:50Z</time>
      </trkpt>
      <trkpt lat="46.87109" lon="-71.65162">
        <ele>193.84301757812</ele>
        <time>2016-03-24T17:49:55Z</time>
      </trkpt>
      <trkpt lat="46.87101" lon="-71.65188">
        <ele>193.3623046875</ele>
        <time>2016-03-24T17:50:13Z</time>
      </trkpt>
      <trkpt lat="46.87101" lon="-71.65192">
        <ele>193.3623046875</ele>
        <time>2016-03-24T17:50:15Z</time>
      </trkpt>
      <trkpt lat="46.87104" lon="-71.65209">
        <ele>194.32373046875</ele>
        <time>2016-03-24T17:50:24Z</time>
      </trkpt>
      <trkpt lat="46.87103" lon="-71.65233">
        <ele>193.3623046875</ele>
        <time>2016-03-24T17:50:40Z</time>
      </trkpt>
      <trkpt lat="46.87111" lon="-71.65256">
        <ele>194.80432128906</ele>
        <time>2016-03-24T17:50:57Z</time>
      </trkpt>
      <trkpt lat="46.87117" lon="-71.65281">
        <ele>194.80432128906</ele>
        <time>2016-03-24T17:51:15Z</time>
      </trkpt>
      <trkpt lat="46.87125" lon="-71.65308">
        <ele>196.24633789062</ele>
        <time>2016-03-24T17:51:31Z</time>
      </trkpt>
      <trkpt lat="46.87129" lon="-71.65335">
        <ele>196.24633789062</ele>
        <time>2016-03-24T17:51:47Z</time>
      </trkpt>
      <trkpt lat="46.87131" lon="-71.65352">
        <ele>196.72692871094</ele>
        <time>2016-03-24T17:51:58Z</time>
      </trkpt>
      <trkpt lat="46.87141" lon="-71.6537">
        <ele>198.1689453125</ele>
        <time>2016-03-24T17:52:14Z</time>
      </trkpt>
      <trkpt lat="46.87153" lon="-71.65388">
        <ele>199.13012695312</ele>
        <time>2016-03-24T17:52:30Z</time>
      </trkpt>
      <trkpt lat="46.87161" lon="-71.65407">
        <ele>199.13012695312</ele>
        <time>2016-03-24T17:52:46Z</time>
      </trkpt>
      <trkpt lat="46.87168" lon="-71.6542">
        <ele>200.572265625</ele>
        <time>2016-03-24T17:52:56Z</time>
      </trkpt>
      <trkpt lat="46.87168" lon="-71.65425">
        <ele>200.572265625</ele>
        <time>2016-03-24T17:52:59Z</time>
      </trkpt>
      <trkpt lat="46.87172" lon="-71.65446">
        <ele>202.01428222656</ele>
        <time>2016-03-24T17:53:14Z</time>
      </trkpt>
      <trkpt lat="46.87177" lon="-71.65466">
        <ele>203.45617675781</ele>
        <time>2016-03-24T17:53:28Z</time>
      </trkpt>
      <trkpt lat="46.87187" lon="-71.65487">
        <ele>204.41748046875</ele>
        <time>2016-03-24T17:53:43Z</time>
      </trkpt>
      <trkpt lat="46.87187" lon="-71.65489">
        <ele>204.41748046875</ele>
        <time>2016-03-24T17:53:44Z</time>
      </trkpt>
      <trkpt lat="46.87194" lon="-71.65518">
        <ele>206.34008789062</ele>
        <time>2016-03-24T17:54:00Z</time>
      </trkpt>
      <trkpt lat="46.87196" lon="-71.65532">
        <ele>206.82067871094</ele>
        <time>2016-03-24T17:54:14Z</time>
      </trkpt>
      <trkpt lat="46.87199" lon="-71.65537">
        <ele>206.82067871094</ele>
        <time>2016-03-24T17:54:41Z</time>
      </trkpt>
      <trkpt lat="46.87205" lon="-71.65552">
        <ele>207.78210449219</ele>
        <time>2016-03-24T17:55:01Z</time>
      </trkpt>
      <trkpt lat="46.87211" lon="-71.65557">
        <ele>208.26281738281</ele>
        <time>2016-03-24T17:55:15Z</time>
      </trkpt>
      <trkpt lat="46.87213" lon="-71.65557">
        <ele>208.74340820312</ele>
        <time>2016-03-24T17:55:19Z</time>
      </trkpt>
      <trkpt lat="46.87227" lon="-71.65563">
        <ele>209.70483398438</ele>
        <time>2016-03-24T17:55:36Z</time>
      </trkpt>
      <trkpt lat="46.87238" lon="-71.6557">
        <ele>210.18542480469</ele>
        <time>2016-03-24T17:55:49Z</time>
      </trkpt>
      <trkpt lat="46.8725" lon="-71.65578">
        <ele>211.14672851562</ele>
        <time>2016-03-24T17:56:03Z</time>
      </trkpt>
      <trkpt lat="46.87266" lon="-71.65586">
        <ele>211.62744140625</ele>
        <time>2016-03-24T17:56:18Z</time>
      </trkpt>
      <trkpt lat="46.87275" lon="-71.65598">
        <ele>212.10803222656</ele>
        <time>2016-03-24T17:56:31Z</time>
      </trkpt>
      <trkpt lat="46.87289" lon="-71.65613">
        <ele>213.0693359375</ele>
        <time>2016-03-24T17:56:46Z</time>
      </trkpt>
      <trkpt lat="46.87305" lon="-71.6562">
        <ele>213.0693359375</ele>
        <time>2016-03-24T17:57:00Z</time>
      </trkpt>
      <trkpt lat="46.8732" lon="-71.65628">
        <ele>213.0693359375</ele>
        <time>2016-03-24T17:57:14Z</time>
      </trkpt>
      <trkpt lat="46.87333" lon="-71.65637">
        <ele>213.0693359375</ele>
        <time>2016-03-24T17:57:27Z</time>
      </trkpt>
      <trkpt lat="46.87344" lon="-71.6565">
        <ele>214.03063964844</ele>
        <time>2016-03-24T17:57:40Z</time>
      </trkpt>
      <trkpt lat="46.87353" lon="-71.65663">
        <ele>214.51123046875</ele>
        <time>2016-03-24T17:57:52Z</time>
      </trkpt>
      <trkpt lat="46.87364" lon="-71.65676">
        <ele>215.47265625</ele>
        <time>2016-03-24T17:58:07Z</time>
      </trkpt>
      <trkpt lat="46.87378" lon="-71.6569">
        <ele>215.95324707031</ele>
        <time>2016-03-24T17:58:23Z</time>
      </trkpt>
      <trkpt lat="46.87394" lon="-71.65703">
        <ele>216.43395996094</ele>
        <time>2016-03-24T17:58:40Z</time>
      </trkpt>
      <trkpt lat="46.87406" lon="-71.65714">
        <ele>216.91467285156</ele>
        <time>2016-03-24T17:58:54Z</time>
      </trkpt>
      <trkpt lat="46.87419" lon="-71.65726">
        <ele>218.83728027344</ele>
        <time>2016-03-24T17:59:08Z</time>
      </trkpt>
      <trkpt lat="46.8743" lon="-71.65742">
        <ele>219.79858398438</ele>
        <time>2016-03-24T17:59:24Z</time>
      </trkpt>
      <trkpt lat="46.87437" lon="-71.65752">
        <ele>219.31799316406</ele>
        <time>2016-03-24T17:59:42Z</time>
      </trkpt>
      <trkpt lat="46.8744" lon="-71.65753">
        <ele>219.79858398438</ele>
        <time>2016-03-24T17:59:58Z</time>
      </trkpt>
      <trkpt lat="46.87446" lon="-71.65761">
        <ele>221.72119140625</ele>
        <time>2016-03-24T18:00:10Z</time>
      </trkpt>
      <trkpt lat="46.87449" lon="-71.65765">
        <ele>221.24060058594</ele>
        <time>2016-03-24T18:00:14Z</time>
      </trkpt>
      <trkpt lat="46.87463" lon="-71.65777">
        <ele>222.20178222656</ele>
        <time>2016-03-24T18:00:29Z</time>
      </trkpt>
      <trkpt lat="46.87477" lon="-71.65791">
        <ele>222.68249511719</ele>
        <time>2016-03-24T18:00:47Z</time>
      </trkpt>
      <trkpt lat="46.87489" lon="-71.65806">
        <ele>225.0859375</ele>
        <time>2016-03-24T18:01:02Z</time>
      </trkpt>
      <trkpt lat="46.87498" lon="-71.65819">
        <ele>227.48913574219</ele>
        <time>2016-03-24T18:01:14Z</time>
      </trkpt>
      <trkpt lat="46.87502" lon="-71.65824">
        <ele>228.45043945312</ele>
        <time>2016-03-24T18:01:18Z</time>
      </trkpt>
      <trkpt lat="46.87514" lon="-71.65847">
        <ele>230.373046875</ele>
        <time>2016-03-24T18:01:35Z</time>
      </trkpt>
      <trkpt lat="46.87522" lon="-71.65873">
        <ele>230.85375976562</ele>
        <time>2016-03-24T18:01:52Z</time>
      </trkpt>
      <trkpt lat="46.87523" lon="-71.65885">
        <ele>231.33435058594</ele>
        <time>2016-03-24T18:02:00Z</time>
      </trkpt>
      <trkpt lat="46.87525" lon="-71.65906">
        <ele>231.81494140625</ele>
        <time>2016-03-24T18:02:14Z</time>
      </trkpt>
      <trkpt lat="46.87526" lon="-71.65934">
        <ele>232.29577636719</ele>
        <time>2016-03-24T18:02:29Z</time>
      </trkpt>
      <trkpt lat="46.87531" lon="-71.65954">
        <ele>232.29577636719</ele>
        <time>2016-03-24T18:02:41Z</time>
      </trkpt>
      <trkpt lat="46.87538" lon="-71.65981">
        <ele>233.25708007812</ele>
        <time>2016-03-24T18:02:58Z</time>
      </trkpt>
      <trkpt lat="46.87546" lon="-71.66004">
        <ele>233.73767089844</ele>
        <time>2016-03-24T18:03:15Z</time>
      </trkpt>
      <trkpt lat="46.87557" lon="-71.66028">
        <ele>234.21838378906</ele>
        <time>2016-03-24T18:03:32Z</time>
      </trkpt>
      <trkpt lat="46.87557" lon="-71.66047">
        <ele>234.69909667969</ele>
        <time>2016-03-24T18:03:45Z</time>
      </trkpt>
      <trkpt lat="46.87552" lon="-71.66072">
        <ele>235.1796875</ele>
        <time>2016-03-24T18:04:03Z</time>
      </trkpt>
      <trkpt lat="46.87551" lon="-71.66091">
        <ele>235.1796875</ele>
        <time>2016-03-24T18:04:15Z</time>
      </trkpt>
      <trkpt lat="46.87548" lon="-71.66119">
        <ele>234.21838378906</ele>
        <time>2016-03-24T18:04:33Z</time>
      </trkpt>
      <trkpt lat="46.87546" lon="-71.66128">
        <ele>234.21838378906</ele>
        <time>2016-03-24T18:05:09Z</time>
      </trkpt>
      <trkpt lat="46.87549" lon="-71.66135">
        <ele>234.21838378906</ele>
        <time>2016-03-24T18:05:23Z</time>
      </trkpt>
      <trkpt lat="46.87547" lon="-71.66124">
        <ele>234.21838378906</ele>
        <time>2016-03-24T18:05:34Z</time>
      </trkpt>
      <trkpt lat="46.87541" lon="-71.66124">
        <ele>233.25708007812</ele>
        <time>2016-03-24T18:05:49Z</time>
      </trkpt>
      <trkpt lat="46.87538" lon="-71.66125">
        <ele>233.25708007812</ele>
        <time>2016-03-24T18:06:24Z</time>
      </trkpt>
      <trkpt lat="46.87528" lon="-71.66118">
        <ele>233.25708007812</ele>
        <time>2016-03-24T18:06:38Z</time>
      </trkpt>
      <trkpt lat="46.87516" lon="-71.66131">
        <ele>234.21838378906</ele>
        <time>2016-03-24T18:06:54Z</time>
      </trkpt>
      <trkpt lat="46.87509" lon="-71.6615">
        <ele>233.73767089844</ele>
        <time>2016-03-24T18:07:10Z</time>
      </trkpt>
      <trkpt lat="46.87507" lon="-71.66173">
        <ele>234.69909667969</ele>
        <time>2016-03-24T18:07:26Z</time>
      </trkpt>
      <trkpt lat="46.87503" lon="-71.66197">
        <ele>234.69909667969</ele>
        <time>2016-03-24T18:07:41Z</time>
      </trkpt>
      <trkpt lat="46.875" lon="-71.66223">
        <ele>234.69909667969</ele>
        <time>2016-03-24T18:07:58Z</time>
      </trkpt>
      <trkpt lat="46.87492" lon="-71.6625">
        <ele>234.21838378906</ele>
        <time>2016-03-24T18:08:17Z</time>
      </trkpt>
      <trkpt lat="46.87491" lon="-71.66253">
        <ele>233.73767089844</ele>
        <time>2016-03-24T18:08:19Z</time>
      </trkpt>
      <trkpt lat="46.87487" lon="-71.66284">
        <ele>233.73767089844</ele>
        <time>2016-03-24T18:08:36Z</time>
      </trkpt>
      <trkpt lat="46.87488" lon="-71.66289">
        <ele>233.73767089844</ele>
        <time>2016-03-24T18:08:39Z</time>
      </trkpt>
      <trkpt lat="46.8749" lon="-71.66316">
        <ele>233.73767089844</ele>
        <time>2016-03-24T18:08:55Z</time>
      </trkpt>
      <trkpt lat="46.87493" lon="-71.66339">
        <ele>234.21838378906</ele>
        <time>2016-03-24T18:09:09Z</time>
      </trkpt>
      <trkpt lat="46.87498" lon="-71.66368">
        <ele>235.1796875</ele>
        <time>2016-03-24T18:09:25Z</time>
      </trkpt>
      <trkpt lat="46.87505" lon="-71.66392">
        <ele>235.66027832031</ele>
        <time>2016-03-24T18:09:42Z</time>
      </trkpt>
      <trkpt lat="46.87514" lon="-71.66414">
        <ele>233.25708007812</ele>
        <time>2016-03-24T18:10:01Z</time>
      </trkpt>
      <trkpt lat="46.87524" lon="-71.66431">
        <ele>232.77648925781</ele>
        <time>2016-03-24T18:10:16Z</time>
      </trkpt>
      <trkpt lat="46.87536" lon="-71.66454">
        <ele>232.77648925781</ele>
        <time>2016-03-24T18:10:33Z</time>
      </trkpt>
      <trkpt lat="46.87546" lon="-71.66484">
        <ele>233.73767089844</ele>
        <time>2016-03-24T18:10:53Z</time>
      </trkpt>
      <trkpt lat="46.87549" lon="-71.66489">
        <ele>233.25708007812</ele>
        <time>2016-03-24T18:10:57Z</time>
      </trkpt>
      <trkpt lat="46.87571" lon="-71.6651">
        <ele>232.77648925781</ele>
        <time>2016-03-24T18:11:19Z</time>
      </trkpt>
      <trkpt lat="46.87576" lon="-71.66516">
        <ele>233.25708007812</ele>
        <time>2016-03-24T18:11:24Z</time>
      </trkpt>
      <trkpt lat="46.87593" lon="-71.66526">
        <ele>232.77648925781</ele>
        <time>2016-03-24T18:11:43Z</time>
      </trkpt>
      <trkpt lat="46.87595" lon="-71.66528">
        <ele>232.77648925781</ele>
        <time>2016-03-24T18:11:46Z</time>
      </trkpt>
      <trkpt lat="46.87605" lon="-71.66541">
        <ele>233.25708007812</ele>
        <time>2016-03-24T18:12:09Z</time>
      </trkpt>
      <trkpt lat="46.87619" lon="-71.66559">
        <ele>232.77648925781</ele>
        <time>2016-03-24T18:12:28Z</time>
      </trkpt>
      <trkpt lat="46.87629" lon="-71.66572">
        <ele>232.29577636719</ele>
        <time>2016-03-24T18:12:44Z</time>
      </trkpt>
      <trkpt lat="46.87646" lon="-71.66596">
        <ele>232.77648925781</ele>
        <time>2016-03-24T18:13:05Z</time>
      </trkpt>
      <trkpt lat="46.87659" lon="-71.66615">
        <ele>232.77648925781</ele>
        <time>2016-03-24T18:13:22Z</time>
      </trkpt>
      <trkpt lat="46.87675" lon="-71.66641">
        <ele>233.25708007812</ele>
        <time>2016-03-24T18:13:43Z</time>
      </trkpt>
      <trkpt lat="46.87691" lon="-71.66663">
        <ele>232.29577636719</ele>
        <time>2016-03-24T18:14:01Z</time>
      </trkpt>
      <trkpt lat="46.87706" lon="-71.66685">
        <ele>232.29577636719</ele>
        <time>2016-03-24T18:14:19Z</time>
      </trkpt>
      <trkpt lat="46.87718" lon="-71.66705">
        <ele>232.29577636719</ele>
        <time>2016-03-24T18:14:35Z</time>
      </trkpt>
      <trkpt lat="46.87737" lon="-71.66729">
        <ele>231.81494140625</ele>
        <time>2016-03-24T18:14:55Z</time>
      </trkpt>
      <trkpt lat="46.87758" lon="-71.66756">
        <ele>231.81494140625</ele>
        <time>2016-03-24T18:15:16Z</time>
      </trkpt>
      <trkpt lat="46.87763" lon="-71.66765">
        <ele>231.81494140625</ele>
        <time>2016-03-24T18:15:23Z</time>
      </trkpt>
      <trkpt lat="46.8778" lon="-71.66788">
        <ele>231.33435058594</ele>
        <time>2016-03-24T18:15:44Z</time>
      </trkpt>
      <trkpt lat="46.87793" lon="-71.66808">
        <ele>232.77648925781</ele>
        <time>2016-03-24T18:16:02Z</time>
      </trkpt>
      <trkpt lat="46.87807" lon="-71.66831">
        <ele>232.29577636719</ele>
        <time>2016-03-24T18:16:20Z</time>
      </trkpt>
      <trkpt lat="46.87808" lon="-71.66832">
        <ele>231.81494140625</ele>
        <time>2016-03-24T18:16:21Z</time>
      </trkpt>
      <trkpt lat="46.87816" lon="-71.66866">
        <ele>231.81494140625</ele>
        <time>2016-03-24T18:16:39Z</time>
      </trkpt>
      <trkpt lat="46.87822" lon="-71.66888">
        <ele>231.33435058594</ele>
        <time>2016-03-24T18:16:52Z</time>
      </trkpt>
      <trkpt lat="46.87834" lon="-71.66906">
        <ele>231.33435058594</ele>
        <time>2016-03-24T18:17:08Z</time>
      </trkpt>
      <trkpt lat="46.87847" lon="-71.66931">
        <ele>230.85375976562</ele>
        <time>2016-03-24T18:17:28Z</time>
      </trkpt>
      <trkpt lat="46.8786" lon="-71.66946">
        <ele>230.85375976562</ele>
        <time>2016-03-24T18:17:43Z</time>
      </trkpt>
      <trkpt lat="46.87872" lon="-71.66966">
        <ele>230.373046875</ele>
        <time>2016-03-24T18:17:56Z</time>
      </trkpt>
      <trkpt lat="46.87884" lon="-71.66988">
        <ele>230.373046875</ele>
        <time>2016-03-24T18:18:14Z</time>
      </trkpt>
      <trkpt lat="46.87897" lon="-71.67013">
        <ele>230.85375976562</ele>
        <time>2016-03-24T18:18:31Z</time>
      </trkpt>
      <trkpt lat="46.8791" lon="-71.67042">
        <ele>231.33435058594</ele>
        <time>2016-03-24T18:18:50Z</time>
      </trkpt>
      <trkpt lat="46.87916" lon="-71.67057">
        <ele>231.33435058594</ele>
        <time>2016-03-24T18:19:04Z</time>
      </trkpt>
      <trkpt lat="46.87927" lon="-71.67081">
        <ele>231.33435058594</ele>
        <time>2016-03-24T18:19:21Z</time>
      </trkpt>
      <trkpt lat="46.87941" lon="-71.67092">
        <ele>230.85375976562</ele>
        <time>2016-03-24T18:19:35Z</time>
      </trkpt>
      <trkpt lat="46.87954" lon="-71.67102">
        <ele>231.81494140625</ele>
        <time>2016-03-24T18:19:50Z</time>
      </trkpt>
      <trkpt lat="46.87969" lon="-71.67117">
        <ele>232.77648925781</ele>
        <time>2016-03-24T18:20:06Z</time>
      </trkpt>
      <trkpt lat="46.87984" lon="-71.6713">
        <ele>234.21838378906</ele>
        <time>2016-03-24T18:20:21Z</time>
      </trkpt>
      <trkpt lat="46.87997" lon="-71.67139">
        <ele>233.73767089844</ele>
        <time>2016-03-24T18:20:35Z</time>
      </trkpt>
      <trkpt lat="46.88004" lon="-71.67147">
        <ele>234.69909667969</ele>
        <time>2016-03-24T18:20:43Z</time>
      </trkpt>
      <trkpt lat="46.88025" lon="-71.67158">
        <ele>237.10229492188</ele>
        <time>2016-03-24T18:21:02Z</time>
      </trkpt>
      <trkpt lat="46.88034" lon="-71.67159">
        <ele>238.06359863281</ele>
        <time>2016-03-24T18:21:11Z</time>
      </trkpt>
      <trkpt lat="46.88039" lon="-71.67152">
        <ele>235.66027832031</ele>
        <time>2016-03-24T18:21:22Z</time>
      </trkpt>
      <trkpt lat="46.88039" lon="-71.6715">
        <ele>236.62170410156</ele>
        <time>2016-03-24T18:21:44Z</time>
      </trkpt>
      <trkpt lat="46.88038" lon="-71.67155">
        <ele>237.10229492188</ele>
        <time>2016-03-24T18:21:59Z</time>
      </trkpt>
      <trkpt lat="46.8804" lon="-71.67164">
        <ele>238.54431152344</ele>
        <time>2016-03-24T18:22:12Z</time>
      </trkpt>
      <trkpt lat="46.88042" lon="-71.67164">
        <ele>239.50549316406</ele>
        <time>2016-03-24T18:22:28Z</time>
      </trkpt>
      <trkpt lat="46.88042" lon="-71.67165">
        <ele>239.02490234375</ele>
        <time>2016-03-24T18:22:54Z</time>
      </trkpt>
      <trkpt lat="46.88042" lon="-71.67167">
        <ele>239.02490234375</ele>
        <time>2016-03-24T18:23:16Z</time>
      </trkpt>
      <trkpt lat="46.88044" lon="-71.67168">
        <ele>238.54431152344</ele>
        <time>2016-03-24T18:23:33Z</time>
      </trkpt>
      <trkpt lat="46.88045" lon="-71.67155">
        <ele>238.06359863281</ele>
        <time>2016-03-24T18:23:55Z</time>
      </trkpt>
      <trkpt lat="46.88038" lon="-71.67159">
        <ele>238.54431152344</ele>
        <time>2016-03-24T18:24:16Z</time>
      </trkpt>
      <trkpt lat="46.8804" lon="-71.67162">
        <ele>238.54431152344</ele>
        <time>2016-03-24T18:24:37Z</time>
      </trkpt>
      <trkpt lat="46.88043" lon="-71.67163">
        <ele>239.50549316406</ele>
        <time>2016-03-24T18:24:53Z</time>
      </trkpt>
      <trkpt lat="46.88045" lon="-71.67166">
        <ele>239.02490234375</ele>
        <time>2016-03-24T18:25:14Z</time>
      </trkpt>
      <trkpt lat="46.88044" lon="-71.67166">
        <ele>239.50549316406</ele>
        <time>2016-03-24T18:25:47Z</time>
      </trkpt>
      <trkpt lat="46.88044" lon="-71.67166">
        <ele>239.98620605469</ele>
        <time>2016-03-24T18:26:10Z</time>
      </trkpt>
      <trkpt lat="46.88041" lon="-71.67166">
        <ele>240.46704101562</ele>
        <time>2016-03-24T18:26:29Z</time>
      </trkpt>
      <trkpt lat="46.88037" lon="-71.67166">
        <ele>239.98620605469</ele>
        <time>2016-03-24T18:26:46Z</time>
      </trkpt>
      <trkpt lat="46.88037" lon="-71.67163">
        <ele>239.98620605469</ele>
        <time>2016-03-24T18:27:01Z</time>
      </trkpt>
      <trkpt lat="46.88039" lon="-71.67158">
        <ele>240.46704101562</ele>
        <time>2016-03-24T18:27:30Z</time>
      </trkpt>
      <trkpt lat="46.88044" lon="-71.67155">
        <ele>239.50549316406</ele>
        <time>2016-03-24T18:27:47Z</time>
      </trkpt>
      <trkpt lat="46.88044" lon="-71.67155">
        <ele>238.54431152344</ele>
        <time>2016-03-24T18:27:59Z</time>
      </trkpt>
      <trkpt lat="46.88044" lon="-71.67159">
        <ele>238.06359863281</ele>
        <time>2016-03-24T18:28:15Z</time>
      </trkpt>
      <trkpt lat="46.88037" lon="-71.67156">
        <ele>238.06359863281</ele>
        <time>2016-03-24T18:28:59Z</time>
      </trkpt>
      <trkpt lat="46.88037" lon="-71.67156">
        <ele>239.50549316406</ele>
        <time>2016-03-24T18:29:16Z</time>
      </trkpt>
      <trkpt lat="46.88034" lon="-71.6715">
        <ele>239.02490234375</ele>
        <time>2016-03-24T18:29:46Z</time>
      </trkpt>
      <trkpt lat="46.88036" lon="-71.67151">
        <ele>239.50549316406</ele>
        <time>2016-03-24T18:30:18Z</time>
      </trkpt>
      <trkpt lat="46.88038" lon="-71.67155">
        <ele>238.54431152344</ele>
        <time>2016-03-24T18:30:43Z</time>
      </trkpt>
      <trkpt lat="46.88046" lon="-71.67154">
        <ele>239.02490234375</ele>
        <time>2016-03-24T18:31:01Z</time>
      </trkpt>
      <trkpt lat="46.8805" lon="-71.67148">
        <ele>239.02490234375</ele>
        <time>2016-03-24T18:31:17Z</time>
      </trkpt>
      <trkpt lat="46.88061" lon="-71.67136">
        <ele>238.06359863281</ele>
        <time>2016-03-24T18:31:32Z</time>
      </trkpt>
      <trkpt lat="46.88067" lon="-71.6712">
        <ele>238.54431152344</ele>
        <time>2016-03-24T18:31:43Z</time>
      </trkpt>
      <trkpt lat="46.88077" lon="-71.67102">
        <ele>239.02490234375</ele>
        <time>2016-03-24T18:31:58Z</time>
      </trkpt>
      <trkpt lat="46.88084" lon="-71.67084">
        <ele>238.54431152344</ele>
        <time>2016-03-24T18:32:09Z</time>
      </trkpt>
      <trkpt lat="46.88096" lon="-71.67072">
        <ele>239.02490234375</ele>
        <time>2016-03-24T18:32:24Z</time>
      </trkpt>
      <trkpt lat="46.88105" lon="-71.67064">
        <ele>239.02490234375</ele>
        <time>2016-03-24T18:32:35Z</time>
      </trkpt>
      <trkpt lat="46.88116" lon="-71.67053">
        <ele>239.50549316406</ele>
        <time>2016-03-24T18:32:49Z</time>
      </trkpt>
      <trkpt lat="46.88129" lon="-71.67041">
        <ele>239.50549316406</ele>
        <time>2016-03-24T18:33:01Z</time>
      </trkpt>
      <trkpt lat="46.88135" lon="-71.67029">
        <ele>240.46704101562</ele>
        <time>2016-03-24T18:33:10Z</time>
      </trkpt>
      <trkpt lat="46.88143" lon="-71.67006">
        <ele>238.06359863281</ele>
        <time>2016-03-24T18:33:25Z</time>
      </trkpt>
      <trkpt lat="46.88149" lon="-71.6699">
        <ele>237.58288574219</ele>
        <time>2016-03-24T18:33:39Z</time>
      </trkpt>
      <trkpt lat="46.88159" lon="-71.66974">
        <ele>238.06359863281</ele>
        <time>2016-03-24T18:33:53Z</time>
      </trkpt>
      <trkpt lat="46.88169" lon="-71.66968">
        <ele>238.54431152344</ele>
        <time>2016-03-24T18:34:04Z</time>
      </trkpt>
      <trkpt lat="46.88177" lon="-71.66947">
        <ele>237.58288574219</ele>
        <time>2016-03-24T18:34:19Z</time>
      </trkpt>
      <trkpt lat="46.88177" lon="-71.66945">
        <ele>237.10229492188</ele>
        <time>2016-03-24T18:34:20Z</time>
      </trkpt>
      <trkpt lat="46.88186" lon="-71.66926">
        <ele>237.10229492188</ele>
        <time>2016-03-24T18:34:37Z</time>
      </trkpt>
      <trkpt lat="46.88189" lon="-71.66915">
        <ele>236.62170410156</ele>
        <time>2016-03-24T18:34:43Z</time>
      </trkpt>
      <trkpt lat="46.88197" lon="-71.6689">
        <ele>235.66027832031</ele>
        <time>2016-03-24T18:34:59Z</time>
      </trkpt>
      <trkpt lat="46.88207" lon="-71.66875">
        <ele>238.06359863281</ele>
        <time>2016-03-24T18:35:15Z</time>
      </trkpt>
      <trkpt lat="46.88216" lon="-71.66861">
        <ele>239.50549316406</ele>
        <time>2016-03-24T18:35:32Z</time>
      </trkpt>
      <trkpt lat="46.88214" lon="-71.66851">
        <ele>239.50549316406</ele>
        <time>2016-03-24T18:35:58Z</time>
      </trkpt>
      <trkpt lat="46.88217" lon="-71.6684">
        <ele>240.46704101562</ele>
        <time>2016-03-24T18:36:08Z</time>
      </trkpt>
      <trkpt lat="46.88223" lon="-71.66822">
        <ele>242.3896484375</ele>
        <time>2016-03-24T18:36:24Z</time>
      </trkpt>
      <trkpt lat="46.88227" lon="-71.66807">
        <ele>245.2734375</ele>
        <time>2016-03-24T18:36:38Z</time>
      </trkpt>
      <trkpt lat="46.88228" lon="-71.66805">
        <ele>245.75415039062</ele>
        <time>2016-03-24T18:36:39Z</time>
      </trkpt>
      <trkpt lat="46.88227" lon="-71.66783">
        <ele>245.75415039062</ele>
        <time>2016-03-24T18:36:54Z</time>
      </trkpt>
      <trkpt lat="46.88228" lon="-71.66778">
        <ele>246.23486328125</ele>
        <time>2016-03-24T18:36:59Z</time>
      </trkpt>
      <trkpt lat="46.88231" lon="-71.66753">
        <ele>246.71545410156</ele>
        <time>2016-03-24T18:37:15Z</time>
      </trkpt>
      <trkpt lat="46.88236" lon="-71.66733">
        <ele>247.6767578125</ele>
        <time>2016-03-24T18:37:30Z</time>
      </trkpt>
      <trkpt lat="46.88233" lon="-71.66716">
        <ele>248.15759277344</ele>
        <time>2016-03-24T18:37:37Z</time>
      </trkpt>
      <trkpt lat="46.8823" lon="-71.66689">
        <ele>246.71545410156</ele>
        <time>2016-03-24T18:37:52Z</time>
      </trkpt>
      <trkpt lat="46.88236" lon="-71.66671">
        <ele>250.08020019531</ele>
        <time>2016-03-24T18:38:06Z</time>
      </trkpt>
      <trkpt lat="46.88235" lon="-71.66649">
        <ele>252.96398925781</ele>
        <time>2016-03-24T18:38:20Z</time>
      </trkpt>
      <trkpt lat="46.8824" lon="-71.66643">
        <ele>254.40600585938</ele>
        <time>2016-03-24T18:38:29Z</time>
      </trkpt>
      <trkpt lat="46.88248" lon="-71.66636">
        <ele>256.32873535156</ele>
        <time>2016-03-24T18:38:42Z</time>
      </trkpt>
      <trkpt lat="46.88256" lon="-71.66625">
        <ele>258.25134277344</ele>
        <time>2016-03-24T18:39:06Z</time>
      </trkpt>
      <trkpt lat="46.88258" lon="-71.66615">
        <ele>258.73193359375</ele>
        <time>2016-03-24T18:39:21Z</time>
      </trkpt>
      <trkpt lat="46.88252" lon="-71.66609">
        <ele>257.77075195312</ele>
        <time>2016-03-24T18:40:12Z</time>
      </trkpt>
      <trkpt lat="46.88251" lon="-71.66591">
        <ele>257.77075195312</ele>
        <time>2016-03-24T18:40:35Z</time>
      </trkpt>
      <trkpt lat="46.88248" lon="-71.66575">
        <ele>255.84802246094</ele>
        <time>2016-03-24T18:40:50Z</time>
      </trkpt>
      <trkpt lat="46.88246" lon="-71.66575">
        <ele>254.88659667969</ele>
        <time>2016-03-24T18:40:52Z</time>
      </trkpt>
      <trkpt lat="46.88239" lon="-71.6657">
        <ele>253.92541503906</ele>
        <time>2016-03-24T18:41:07Z</time>
      </trkpt>
      <trkpt lat="46.88225" lon="-71.6656">
        <ele>251.52209472656</ele>
        <time>2016-03-24T18:41:24Z</time>
      </trkpt>
      <trkpt lat="46.88223" lon="-71.66559">
        <ele>251.52209472656</ele>
        <time>2016-03-24T18:41:26Z</time>
      </trkpt>
      <trkpt lat="46.8821" lon="-71.66542">
        <ele>249.59948730469</ele>
        <time>2016-03-24T18:41:41Z</time>
      </trkpt>
      <trkpt lat="46.88199" lon="-71.66535">
        <ele>246.71545410156</ele>
        <time>2016-03-24T18:41:56Z</time>
      </trkpt>
      <trkpt lat="46.88189" lon="-71.66516">
        <ele>244.79284667969</ele>
        <time>2016-03-24T18:42:13Z</time>
      </trkpt>
      <trkpt lat="46.88185" lon="-71.66507">
        <ele>245.2734375</ele>
        <time>2016-03-24T18:42:29Z</time>
      </trkpt>
      <trkpt lat="46.88182" lon="-71.66501">
        <ele>245.75415039062</ele>
        <time>2016-03-24T18:43:03Z</time>
      </trkpt>
      <trkpt lat="46.88183" lon="-71.66484">
        <ele>247.6767578125</ele>
        <time>2016-03-24T18:43:17Z</time>
      </trkpt>
      <trkpt lat="46.88177" lon="-71.6646">
        <ele>249.11877441406</ele>
        <time>2016-03-24T18:43:35Z</time>
      </trkpt>
      <trkpt lat="46.88178" lon="-71.66443">
        <ele>250.56079101562</ele>
        <time>2016-03-24T18:44:28Z</time>
      </trkpt>
      <trkpt lat="46.88176" lon="-71.66433">
        <ele>251.04138183594</ele>
        <time>2016-03-24T18:44:35Z</time>
      </trkpt>
      <trkpt lat="46.88175" lon="-71.66416">
        <ele>252.96398925781</ele>
        <time>2016-03-24T18:44:49Z</time>
      </trkpt>
      <trkpt lat="46.88168" lon="-71.66392">
        <ele>254.88659667969</ele>
        <time>2016-03-24T18:45:06Z</time>
      </trkpt>
      <trkpt lat="46.8817" lon="-71.66375">
        <ele>256.80932617188</ele>
        <time>2016-03-24T18:45:24Z</time>
      </trkpt>
      <trkpt lat="46.88168" lon="-71.66368">
        <ele>257.77075195312</ele>
        <time>2016-03-24T18:45:28Z</time>
      </trkpt>
      <trkpt lat="46.88162" lon="-71.6634">
        <ele>258.25134277344</ele>
        <time>2016-03-24T18:45:45Z</time>
      </trkpt>
      <trkpt lat="46.88158" lon="-71.66324">
        <ele>258.25134277344</ele>
        <time>2016-03-24T18:46:02Z</time>
      </trkpt>
      <trkpt lat="46.88151" lon="-71.66304">
        <ele>258.73193359375</ele>
        <time>2016-03-24T18:46:17Z</time>
      </trkpt>
      <trkpt lat="46.88142" lon="-71.66283">
        <ele>257.77075195312</ele>
        <time>2016-03-24T18:46:35Z</time>
      </trkpt>
      <trkpt lat="46.88134" lon="-71.66257">
        <ele>257.77075195312</ele>
        <time>2016-03-24T18:46:51Z</time>
      </trkpt>
      <trkpt lat="46.8813" lon="-71.66237">
        <ele>259.21264648438</ele>
        <time>2016-03-24T18:47:06Z</time>
      </trkpt>
      <trkpt lat="46.88124" lon="-71.66217">
        <ele>259.693359375</ele>
        <time>2016-03-24T18:47:21Z</time>
      </trkpt>
      <trkpt lat="46.88117" lon="-71.66203">
        <ele>260.17395019531</ele>
        <time>2016-03-24T18:47:33Z</time>
      </trkpt>
      <trkpt lat="46.88114" lon="-71.66201">
        <ele>259.693359375</ele>
        <time>2016-03-24T18:47:35Z</time>
      </trkpt>
      <trkpt lat="46.88111" lon="-71.66187">
        <ele>259.693359375</ele>
        <time>2016-03-24T18:47:46Z</time>
      </trkpt>
      <trkpt lat="46.88104" lon="-71.66163">
        <ele>259.21264648438</ele>
        <time>2016-03-24T18:48:03Z</time>
      </trkpt>
      <trkpt lat="46.88092" lon="-71.6613">
        <ele>259.693359375</ele>
        <time>2016-03-24T18:48:22Z</time>
      </trkpt>
      <trkpt lat="46.88085" lon="-71.66105">
        <ele>258.73193359375</ele>
        <time>2016-03-24T18:48:38Z</time>
      </trkpt>
      <trkpt lat="46.88084" lon="-71.66103">
        <ele>257.77075195312</ele>
        <time>2016-03-24T18:48:40Z</time>
      </trkpt>
      <trkpt lat="46.88078" lon="-71.66081">
        <ele>255.36730957031</ele>
        <time>2016-03-24T18:48:57Z</time>
      </trkpt>
      <trkpt lat="46.88076" lon="-71.66065">
        <ele>253.92541503906</ele>
        <time>2016-03-24T18:49:26Z</time>
      </trkpt>
      <trkpt lat="46.88076" lon="-71.66045">
        <ele>255.36730957031</ele>
        <time>2016-03-24T18:49:38Z</time>
      </trkpt>
      <trkpt lat="46.88075" lon="-71.66023">
        <ele>256.80932617188</ele>
        <time>2016-03-24T18:49:52Z</time>
      </trkpt>
      <trkpt lat="46.88079" lon="-71.66009">
        <ele>257.77075195312</ele>
        <time>2016-03-24T18:50:05Z</time>
      </trkpt>
      <trkpt lat="46.88081" lon="-71.66001">
        <ele>259.21264648438</ele>
        <time>2016-03-24T18:50:11Z</time>
      </trkpt>
      <trkpt lat="46.88085" lon="-71.65978">
        <ele>260.17395019531</ele>
        <time>2016-03-24T18:50:26Z</time>
      </trkpt>
      <trkpt lat="46.88092" lon="-71.65958">
        <ele>260.65454101562</ele>
        <time>2016-03-24T18:50:41Z</time>
      </trkpt>
      <trkpt lat="46.88096" lon="-71.65937">
        <ele>261.61596679688</ele>
        <time>2016-03-24T18:50:55Z</time>
      </trkpt>
      <trkpt lat="46.88105" lon="-71.65921">
        <ele>260.65454101562</ele>
        <time>2016-03-24T18:51:10Z</time>
      </trkpt>
      <trkpt lat="46.88115" lon="-71.65902">
        <ele>261.61596679688</ele>
        <time>2016-03-24T18:51:26Z</time>
      </trkpt>
      <trkpt lat="46.88124" lon="-71.65893">
        <ele>260.17395019531</ele>
        <time>2016-03-24T18:51:37Z</time>
      </trkpt>
      <trkpt lat="46.88134" lon="-71.65869">
        <ele>259.693359375</ele>
        <time>2016-03-24T18:51:55Z</time>
      </trkpt>
      <trkpt lat="46.8814" lon="-71.65859">
        <ele>257.77075195312</ele>
        <time>2016-03-24T18:52:06Z</time>
      </trkpt>
      <trkpt lat="46.88151" lon="-71.65847">
        <ele>256.32873535156</ele>
        <time>2016-03-24T18:52:23Z</time>
      </trkpt>
      <trkpt lat="46.88159" lon="-71.6582">
        <ele>254.40600585938</ele>
        <time>2016-03-24T18:52:43Z</time>
      </trkpt>
      <trkpt lat="46.88168" lon="-71.65802">
        <ele>252.00280761719</ele>
        <time>2016-03-24T18:53:00Z</time>
      </trkpt>
      <trkpt lat="46.88169" lon="-71.65795">
        <ele>251.52209472656</ele>
        <time>2016-03-24T18:53:04Z</time>
      </trkpt>
      <trkpt lat="46.88176" lon="-71.65773">
        <ele>249.59948730469</ele>
        <time>2016-03-24T18:53:20Z</time>
      </trkpt>
      <trkpt lat="46.88184" lon="-71.65752">
        <ele>247.6767578125</ele>
        <time>2016-03-24T18:53:36Z</time>
      </trkpt>
      <trkpt lat="46.88185" lon="-71.6574">
        <ele>247.6767578125</ele>
        <time>2016-03-24T18:53:43Z</time>
      </trkpt>
      <trkpt lat="46.88194" lon="-71.6572">
        <ele>244.79284667969</ele>
        <time>2016-03-24T18:54:01Z</time>
      </trkpt>
      <trkpt lat="46.88196" lon="-71.65699">
        <ele>243.83154296875</ele>
        <time>2016-03-24T18:54:16Z</time>
      </trkpt>
      <trkpt lat="46.88195" lon="-71.65679">
        <ele>241.42822265625</ele>
        <time>2016-03-24T18:54:32Z</time>
      </trkpt>
      <trkpt lat="46.88196" lon="-71.65662">
        <ele>239.50549316406</ele>
        <time>2016-03-24T18:54:49Z</time>
      </trkpt>
      <trkpt lat="46.88199" lon="-71.65647">
        <ele>236.14099121094</ele>
        <time>2016-03-24T18:55:06Z</time>
      </trkpt>
      <trkpt lat="46.88209" lon="-71.65636">
        <ele>232.77648925781</ele>
        <time>2016-03-24T18:55:21Z</time>
      </trkpt>
      <trkpt lat="46.88221" lon="-71.65627">
        <ele>230.85375976562</ele>
        <time>2016-03-24T18:55:37Z</time>
      </trkpt>
      <trkpt lat="46.88226" lon="-71.65611">
        <ele>228.93115234375</ele>
        <time>2016-03-24T18:55:52Z</time>
      </trkpt>
      <trkpt lat="46.88231" lon="-71.65594">
        <ele>226.04711914062</ele>
        <time>2016-03-24T18:56:07Z</time>
      </trkpt>
      <trkpt lat="46.88243" lon="-71.65591">
        <ele>225.0859375</ele>
        <time>2016-03-24T18:56:23Z</time>
      </trkpt>
      <trkpt lat="46.88254" lon="-71.65585">
        <ele>221.72119140625</ele>
        <time>2016-03-24T18:56:39Z</time>
      </trkpt>
      <trkpt lat="46.88265" lon="-71.65573">
        <ele>219.31799316406</ele>
        <time>2016-03-24T18:56:56Z</time>
      </trkpt>
      <trkpt lat="46.88267" lon="-71.65561">
        <ele>217.8759765625</ele>
        <time>2016-03-24T18:57:07Z</time>
      </trkpt>
      <trkpt lat="46.8827" lon="-71.65557">
        <ele>216.43395996094</ele>
        <time>2016-03-24T18:57:13Z</time>
      </trkpt>
      <trkpt lat="46.88271" lon="-71.65541">
        <ele>214.99194335938</ele>
        <time>2016-03-24T18:57:23Z</time>
      </trkpt>
      <trkpt lat="46.88267" lon="-71.65514">
        <ele>214.03063964844</ele>
        <time>2016-03-24T18:57:40Z</time>
      </trkpt>
      <trkpt lat="46.8826" lon="-71.655">
        <ele>214.51123046875</ele>
        <time>2016-03-24T18:57:55Z</time>
      </trkpt>
      <trkpt lat="46.88254" lon="-71.65486">
        <ele>214.51123046875</ele>
        <time>2016-03-24T18:58:06Z</time>
      </trkpt>
      <trkpt lat="46.88248" lon="-71.65469">
        <ele>212.58862304688</ele>
        <time>2016-03-24T18:58:20Z</time>
      </trkpt>
      <trkpt lat="46.88242" lon="-71.65447">
        <ele>213.55004882812</ele>
        <time>2016-03-24T18:58:33Z</time>
      </trkpt>
      <trkpt lat="46.88242" lon="-71.65438">
        <ele>213.55004882812</ele>
        <time>2016-03-24T18:58:40Z</time>
      </trkpt>
      <trkpt lat="46.88244" lon="-71.65431">
        <ele>213.0693359375</ele>
        <time>2016-03-24T18:58:46Z</time>
      </trkpt>
      <trkpt lat="46.88242" lon="-71.65411">
        <ele>211.14672851562</ele>
        <time>2016-03-24T18:59:03Z</time>
      </trkpt>
      <trkpt lat="46.88244" lon="-71.654">
        <ele>209.70483398438</ele>
        <time>2016-03-24T18:59:12Z</time>
      </trkpt>
      <trkpt lat="46.88244" lon="-71.65379">
        <ele>207.30139160156</ele>
        <time>2016-03-24T18:59:26Z</time>
      </trkpt>
      <trkpt lat="46.88253" lon="-71.65367">
        <ele>206.34008789062</ele>
        <time>2016-03-24T18:59:43Z</time>
      </trkpt>
      <trkpt lat="46.88259" lon="-71.65362">
        <ele>205.37878417969</ele>
        <time>2016-03-24T19:00:00Z</time>
      </trkpt>
      <trkpt lat="46.88258" lon="-71.65335">
        <ele>204.89807128906</ele>
        <time>2016-03-24T19:00:15Z</time>
      </trkpt>
      <trkpt lat="46.88264" lon="-71.65312">
        <ele>203.93688964844</ele>
        <time>2016-03-24T19:00:32Z</time>
      </trkpt>
      <trkpt lat="46.88265" lon="-71.65313">
        <ele>204.41748046875</ele>
        <time>2016-03-24T19:00:46Z</time>
      </trkpt>
      <trkpt lat="46.8827" lon="-71.65302">
        <ele>203.45617675781</ele>
        <time>2016-03-24T19:00:57Z</time>
      </trkpt>
      <trkpt lat="46.88273" lon="-71.6528">
        <ele>201.05285644531</ele>
        <time>2016-03-24T19:01:14Z</time>
      </trkpt>
      <trkpt lat="46.88267" lon="-71.65264">
        <ele>199.13012695312</ele>
        <time>2016-03-24T19:01:31Z</time>
      </trkpt>
      <trkpt lat="46.88266" lon="-71.65256">
        <ele>199.13012695312</ele>
        <time>2016-03-24T19:01:39Z</time>
      </trkpt>
      <trkpt lat="46.88273" lon="-71.65241">
        <ele>197.68823242188</ele>
        <time>2016-03-24T19:01:54Z</time>
      </trkpt>
      <trkpt lat="46.88285" lon="-71.65224">
        <ele>195.765625</ele>
        <time>2016-03-24T19:02:11Z</time>
      </trkpt>
      <trkpt lat="46.88294" lon="-71.65215">
        <ele>196.24633789062</ele>
        <time>2016-03-24T19:02:25Z</time>
      </trkpt>
      <trkpt lat="46.88305" lon="-71.65206">
        <ele>194.32373046875</ele>
        <time>2016-03-24T19:02:41Z</time>
      </trkpt>
      <trkpt lat="46.88315" lon="-71.65204">
        <ele>195.765625</ele>
        <time>2016-03-24T19:03:08Z</time>
      </trkpt>
      <trkpt lat="46.88317" lon="-71.65201">
        <ele>194.80432128906</ele>
        <time>2016-03-24T19:03:13Z</time>
      </trkpt>
      <trkpt lat="46.88313" lon="-71.65189">
        <ele>193.3623046875</ele>
        <time>2016-03-24T19:03:22Z</time>
      </trkpt>
      <trkpt lat="46.88307" lon="-71.65182">
        <ele>194.32373046875</ele>
        <time>2016-03-24T19:03:30Z</time>
      </trkpt>
      <trkpt lat="46.88301" lon="-71.65172">
        <ele>193.3623046875</ele>
        <time>2016-03-24T19:03:38Z</time>
      </trkpt>
      <trkpt lat="46.88286" lon="-71.6516">
        <ele>193.84301757812</ele>
        <time>2016-03-24T19:03:55Z</time>
      </trkpt>
      <trkpt lat="46.88275" lon="-71.65148">
        <ele>193.3623046875</ele>
        <time>2016-03-24T19:04:09Z</time>
      </trkpt>
      <trkpt lat="46.88273" lon="-71.65148">
        <ele>192.88171386719</ele>
        <time>2016-03-24T19:04:11Z</time>
      </trkpt>
      <trkpt lat="46.88266" lon="-71.65145">
        <ele>193.3623046875</ele>
        <time>2016-03-24T19:04:16Z</time>
      </trkpt>
      <trkpt lat="46.88255" lon="-71.65128">
        <ele>193.3623046875</ele>
        <time>2016-03-24T19:04:31Z</time>
      </trkpt>
      <trkpt lat="46.8824" lon="-71.65114">
        <ele>194.32373046875</ele>
        <time>2016-03-24T19:04:46Z</time>
      </trkpt>
      <trkpt lat="46.88239" lon="-71.65113">
        <ele>194.32373046875</ele>
        <time>2016-03-24T19:04:47Z</time>
      </trkpt>
      <trkpt lat="46.88219" lon="-71.65111">
        <ele>194.32373046875</ele>
        <time>2016-03-24T19:05:03Z</time>
      </trkpt>
      <trkpt lat="46.88207" lon="-71.65103">
        <ele>194.32373046875</ele>
        <time>2016-03-24T19:05:13Z</time>
      </trkpt>
      <trkpt lat="46.88198" lon="-71.65104">
        <ele>194.32373046875</ele>
        <time>2016-03-24T19:05:20Z</time>
      </trkpt>
      <trkpt lat="46.88179" lon="-71.651">
        <ele>194.32373046875</ele>
        <time>2016-03-24T19:05:37Z</time>
      </trkpt>
      <trkpt lat="46.88169" lon="-71.65091">
        <ele>193.84301757812</ele>
        <time>2016-03-24T19:05:50Z</time>
      </trkpt>
      <trkpt lat="46.88156" lon="-71.6508">
        <ele>192.88171386719</ele>
        <time>2016-03-24T19:06:02Z</time>
      </trkpt>
      <trkpt lat="46.88142" lon="-71.65069">
        <ele>192.88171386719</ele>
        <time>2016-03-24T19:06:16Z</time>
      </trkpt>
      <trkpt lat="46.88124" lon="-71.65073">
        <ele>192.88171386719</ele>
        <time>2016-03-24T19:06:31Z</time>
      </trkpt>
      <trkpt lat="46.88111" lon="-71.65077">
        <ele>192.88171386719</ele>
        <time>2016-03-24T19:06:42Z</time>
      </trkpt>
      <trkpt lat="46.88102" lon="-71.65089">
        <ele>192.40112304688</ele>
        <time>2016-03-24T19:06:51Z</time>
      </trkpt>
      <trkpt lat="46.88085" lon="-71.65094">
        <ele>193.84301757812</ele>
        <time>2016-03-24T19:07:06Z</time>
      </trkpt>
      <trkpt lat="46.88073" lon="-71.651">
        <ele>194.32373046875</ele>
        <time>2016-03-24T19:07:17Z</time>
      </trkpt>
      <trkpt lat="46.88067" lon="-71.65105">
        <ele>194.80432128906</ele>
        <time>2016-03-24T19:07:24Z</time>
      </trkpt>
      <trkpt lat="46.88045" lon="-71.65106">
        <ele>195.765625</ele>
        <time>2016-03-24T19:07:42Z</time>
      </trkpt>
      <trkpt lat="46.8803" lon="-71.65105">
        <ele>196.24633789062</ele>
        <time>2016-03-24T19:07:54Z</time>
      </trkpt>
      <trkpt lat="46.88013" lon="-71.65107">
        <ele>196.72692871094</ele>
        <time>2016-03-24T19:08:09Z</time>
      </trkpt>
      <trkpt lat="46.87991" lon="-71.65108">
        <ele>197.20751953125</ele>
        <time>2016-03-24T19:08:27Z</time>
      </trkpt>
      <trkpt lat="46.87979" lon="-71.65097">
        <ele>197.20751953125</ele>
        <time>2016-03-24T19:08:41Z</time>
      </trkpt>
      <trkpt lat="46.87968" lon="-71.65086">
        <ele>196.72692871094</ele>
        <time>2016-03-24T19:08:53Z</time>
      </trkpt>
      <trkpt lat="46.87947" lon="-71.65076">
        <ele>194.80432128906</ele>
        <time>2016-03-24T19:09:09Z</time>
      </trkpt>
      <trkpt lat="46.87943" lon="-71.65075">
        <ele>194.32373046875</ele>
        <time>2016-03-24T19:09:12Z</time>
      </trkpt>
      <trkpt lat="46.87924" lon="-71.65072">
        <ele>193.3623046875</ele>
        <time>2016-03-24T19:09:29Z</time>
      </trkpt>
      <trkpt lat="46.87923" lon="-71.65072">
        <ele>193.84301757812</ele>
        <time>2016-03-24T19:09:30Z</time>
      </trkpt>
      <trkpt lat="46.87916" lon="-71.65057">
        <ele>193.3623046875</ele>
        <time>2016-03-24T19:09:42Z</time>
      </trkpt>
      <trkpt lat="46.87911" lon="-71.65038">
        <ele>191.92028808594</ele>
        <time>2016-03-24T19:09:52Z</time>
      </trkpt>
      <trkpt lat="46.8791" lon="-71.65029">
        <ele>190.47839355469</ele>
        <time>2016-03-24T19:09:57Z</time>
      </trkpt>
      <trkpt lat="46.87908" lon="-71.6502">
        <ele>190.47839355469</ele>
        <time>2016-03-24T19:10:02Z</time>
      </trkpt>
      <trkpt lat="46.87898" lon="-71.65006">
        <ele>189.51696777344</ele>
        <time>2016-03-24T19:10:14Z</time>
      </trkpt>
      <trkpt lat="46.87889" lon="-71.64997">
        <ele>188.55578613281</ele>
        <time>2016-03-24T19:10:26Z</time>
      </trkpt>
      <trkpt lat="46.87884" lon="-71.64989">
        <ele>187.11376953125</ele>
        <time>2016-03-24T19:10:31Z</time>
      </trkpt>
      <trkpt lat="46.87879" lon="-71.64973">
        <ele>186.15246582031</ele>
        <time>2016-03-24T19:10:40Z</time>
      </trkpt>
      <trkpt lat="46.87871" lon="-71.64956">
        <ele>186.15246582031</ele>
        <time>2016-03-24T19:10:51Z</time>
      </trkpt>
      <trkpt lat="46.87866" lon="-71.64956">
        <ele>184.71057128906</ele>
        <time>2016-03-24T19:11:10Z</time>
      </trkpt>
      <trkpt lat="46.87864" lon="-71.64956">
        <ele>186.15246582031</ele>
        <time>2016-03-24T19:11:35Z</time>
      </trkpt>
      <trkpt lat="46.87857" lon="-71.64938">
        <ele>185.19116210938</ele>
        <time>2016-03-24T19:12:13Z</time>
      </trkpt>
      <trkpt lat="46.87857" lon="-71.6493">
        <ele>185.19116210938</ele>
        <time>2016-03-24T19:12:28Z</time>
      </trkpt>
      <trkpt lat="46.87853" lon="-71.64917">
        <ele>184.22985839844</ele>
        <time>2016-03-24T19:12:41Z</time>
      </trkpt>
      <trkpt lat="46.87851" lon="-71.64912">
        <ele>184.22985839844</ele>
        <time>2016-03-24T19:12:45Z</time>
      </trkpt>
      <trkpt lat="46.87846" lon="-71.6489">
        <ele>183.7490234375</ele>
        <time>2016-03-24T19:12:58Z</time>
      </trkpt>
      <trkpt lat="46.87849" lon="-71.64867">
        <ele>183.26843261719</ele>
        <time>2016-03-24T19:13:12Z</time>
      </trkpt>
      <trkpt lat="46.87847" lon="-71.64862">
        <ele>182.78784179688</ele>
        <time>2016-03-24T19:13:15Z</time>
      </trkpt>
      <trkpt lat="46.87838" lon="-71.64848">
        <ele>182.30712890625</ele>
        <time>2016-03-24T19:13:28Z</time>
      </trkpt>
      <trkpt lat="46.87829" lon="-71.64831">
        <ele>180.865234375</ele>
        <time>2016-03-24T19:13:41Z</time>
      </trkpt>
      <trkpt lat="46.87826" lon="-71.64828">
        <ele>180.865234375</ele>
        <time>2016-03-24T19:13:45Z</time>
      </trkpt>
      <trkpt lat="46.87816" lon="-71.64825">
        <ele>179.90380859375</ele>
        <time>2016-03-24T19:13:55Z</time>
      </trkpt>
      <trkpt lat="46.87812" lon="-71.64824">
        <ele>179.90380859375</ele>
        <time>2016-03-24T19:13:59Z</time>
      </trkpt>
      <trkpt lat="46.87794" lon="-71.64832">
        <ele>177.98120117188</ele>
        <time>2016-03-24T19:14:16Z</time>
      </trkpt>
      <trkpt lat="46.87779" lon="-71.6484">
        <ele>179.42321777344</ele>
        <time>2016-03-24T19:14:30Z</time>
      </trkpt>
      <trkpt lat="46.87764" lon="-71.64851">
        <ele>180.865234375</ele>
        <time>2016-03-24T19:14:44Z</time>
      </trkpt>
      <trkpt lat="46.87748" lon="-71.64859">
        <ele>182.30712890625</ele>
        <time>2016-03-24T19:15:01Z</time>
      </trkpt>
      <trkpt lat="46.87739" lon="-71.64868">
        <ele>183.7490234375</ele>
        <time>2016-03-24T19:15:14Z</time>
      </trkpt>
      <trkpt lat="46.8773" lon="-71.64878">
        <ele>185.19116210938</ele>
        <time>2016-03-24T19:15:27Z</time>
      </trkpt>
      <trkpt lat="46.87727" lon="-71.64893">
        <ele>186.15246582031</ele>
        <time>2016-03-24T19:15:38Z</time>
      </trkpt>
      <trkpt lat="46.8772" lon="-71.64908">
        <ele>187.59436035156</ele>
        <time>2016-03-24T19:15:49Z</time>
      </trkpt>
      <trkpt lat="46.87708" lon="-71.64921">
        <ele>188.55578613281</ele>
        <time>2016-03-24T19:16:03Z</time>
      </trkpt>
      <trkpt lat="46.87706" lon="-71.6492">
        <ele>188.07507324219</ele>
        <time>2016-03-24T19:16:06Z</time>
      </trkpt>
      <trkpt lat="46.87694" lon="-71.64915">
        <ele>188.55578613281</ele>
        <time>2016-03-24T19:16:19Z</time>
      </trkpt>
      <trkpt lat="46.87679" lon="-71.64913">
        <ele>189.99768066406</ele>
        <time>2016-03-24T19:16:33Z</time>
      </trkpt>
      <trkpt lat="46.87663" lon="-71.64905">
        <ele>190.958984375</ele>
        <time>2016-03-24T19:16:47Z</time>
      </trkpt>
      <trkpt lat="46.87647" lon="-71.64896">
        <ele>191.43957519531</ele>
        <time>2016-03-24T19:17:02Z</time>
      </trkpt>
      <trkpt lat="46.87639" lon="-71.64888">
        <ele>192.40112304688</ele>
        <time>2016-03-24T19:17:10Z</time>
      </trkpt>
      <trkpt lat="46.87623" lon="-71.64874">
        <ele>192.88171386719</ele>
        <time>2016-03-24T19:17:26Z</time>
      </trkpt>
      <trkpt lat="46.87622" lon="-71.64874">
        <ele>193.3623046875</ele>
        <time>2016-03-24T19:17:27Z</time>
      </trkpt>
      <trkpt lat="46.8761" lon="-71.64868">
        <ele>193.3623046875</ele>
        <time>2016-03-24T19:17:40Z</time>
      </trkpt>
      <trkpt lat="46.87606" lon="-71.64863">
        <ele>194.32373046875</ele>
        <time>2016-03-24T19:17:45Z</time>
      </trkpt>
      <trkpt lat="46.87591" lon="-71.64864">
        <ele>194.80432128906</ele>
        <time>2016-03-24T19:17:59Z</time>
      </trkpt>
      <trkpt lat="46.87578" lon="-71.64881">
        <ele>196.72692871094</ele>
        <time>2016-03-24T19:18:14Z</time>
      </trkpt>
      <trkpt lat="46.87568" lon="-71.64888">
        <ele>196.72692871094</ele>
        <time>2016-03-24T19:18:23Z</time>
      </trkpt>
      <trkpt lat="46.87553" lon="-71.649">
        <ele>199.13012695312</ele>
        <time>2016-03-24T19:18:38Z</time>
      </trkpt>
      <trkpt lat="46.87539" lon="-71.64909">
        <ele>200.09167480469</ele>
        <time>2016-03-24T19:18:52Z</time>
      </trkpt>
      <trkpt lat="46.87538" lon="-71.64909">
        <ele>200.572265625</ele>
        <time>2016-03-24T19:18:53Z</time>
      </trkpt>
      <trkpt lat="46.87521" lon="-71.6491">
        <ele>202.01428222656</ele>
        <time>2016-03-24T19:19:09Z</time>
      </trkpt>
      <trkpt lat="46.87514" lon="-71.64919">
        <ele>202.49487304688</ele>
        <time>2016-03-24T19:19:16Z</time>
      </trkpt>
      <trkpt lat="46.87502" lon="-71.64926">
        <ele>202.97546386719</ele>
        <time>2016-03-24T19:19:29Z</time>
      </trkpt>
      <trkpt lat="46.87492" lon="-71.64932">
        <ele>203.45617675781</ele>
        <time>2016-03-24T19:19:38Z</time>
      </trkpt>
      <trkpt lat="46.87475" lon="-71.64945">
        <ele>204.41748046875</ele>
        <time>2016-03-24T19:19:54Z</time>
      </trkpt>
      <trkpt lat="46.87472" lon="-71.64945">
        <ele>204.89807128906</ele>
        <time>2016-03-24T19:19:57Z</time>
      </trkpt>
      <trkpt lat="46.87454" lon="-71.64932">
        <ele>204.89807128906</ele>
        <time>2016-03-24T19:20:19Z</time>
      </trkpt>
      <trkpt lat="46.87439" lon="-71.64915">
        <ele>204.41748046875</ele>
        <time>2016-03-24T19:20:41Z</time>
      </trkpt>
      <trkpt lat="46.87437" lon="-71.64911">
        <ele>204.89807128906</ele>
        <time>2016-03-24T19:20:45Z</time>
      </trkpt>
      <trkpt lat="46.87426" lon="-71.64886">
        <ele>203.93688964844</ele>
        <time>2016-03-24T19:21:03Z</time>
      </trkpt>
      <trkpt lat="46.87421" lon="-71.6488">
        <ele>204.41748046875</ele>
        <time>2016-03-24T19:21:18Z</time>
      </trkpt>
      <trkpt lat="46.87408" lon="-71.64869">
        <ele>205.37878417969</ele>
        <time>2016-03-24T19:21:32Z</time>
      </trkpt>
      <trkpt lat="46.87399" lon="-71.64871">
        <ele>204.89807128906</ele>
        <time>2016-03-24T19:21:41Z</time>
      </trkpt>
      <trkpt lat="46.87391" lon="-71.64877">
        <ele>204.41748046875</ele>
        <time>2016-03-24T19:21:49Z</time>
      </trkpt>
      <trkpt lat="46.87375" lon="-71.64878">
        <ele>204.89807128906</ele>
        <time>2016-03-24T19:22:03Z</time>
      </trkpt>
      <trkpt lat="46.87359" lon="-71.64879">
        <ele>206.34008789062</ele>
        <time>2016-03-24T19:22:16Z</time>
      </trkpt>
      <trkpt lat="46.87342" lon="-71.64899">
        <ele>207.30139160156</ele>
        <time>2016-03-24T19:22:33Z</time>
      </trkpt>
      <trkpt lat="46.87329" lon="-71.6493">
        <ele>205.85949707031</ele>
        <time>2016-03-24T19:22:52Z</time>
      </trkpt>
      <trkpt lat="46.87313" lon="-71.64942">
        <ele>204.41748046875</ele>
        <time>2016-03-24T19:23:07Z</time>
      </trkpt>
      <trkpt lat="46.87292" lon="-71.64946">
        <ele>205.85949707031</ele>
        <time>2016-03-24T19:23:24Z</time>
      </trkpt>
      <trkpt lat="46.87286" lon="-71.64947">
        <ele>205.37878417969</ele>
        <time>2016-03-24T19:23:28Z</time>
      </trkpt>
      <trkpt lat="46.87284" lon="-71.64945">
        <ele>205.85949707031</ele>
        <time>2016-03-24T19:23:30Z</time>
      </trkpt>
      <trkpt lat="46.8728" lon="-71.64937">
        <ele>206.82067871094</ele>
        <time>2016-03-24T19:23:36Z</time>
      </trkpt>
      <trkpt lat="46.87268" lon="-71.64918">
        <ele>207.78210449219</ele>
        <time>2016-03-24T19:23:51Z</time>
      </trkpt>
      <trkpt lat="46.87256" lon="-71.64907">
        <ele>209.22412109375</ele>
        <time>2016-03-24T19:24:04Z</time>
      </trkpt>
      <trkpt lat="46.87239" lon="-71.64894">
        <ele>211.14672851562</ele>
        <time>2016-03-24T19:24:23Z</time>
      </trkpt>
      <trkpt lat="46.87234" lon="-71.64893">
        <ele>211.62744140625</ele>
        <time>2016-03-24T19:24:27Z</time>
      </trkpt>
      <trkpt lat="46.87228" lon="-71.6489">
        <ele>212.10803222656</ele>
        <time>2016-03-24T19:24:31Z</time>
      </trkpt>
      <trkpt lat="46.87211" lon="-71.64881">
        <ele>213.0693359375</ele>
        <time>2016-03-24T19:24:46Z</time>
      </trkpt>
      <trkpt lat="46.87203" lon="-71.64874">
        <ele>212.58862304688</ele>
        <time>2016-03-24T19:24:53Z</time>
      </trkpt>
      <trkpt lat="46.87184" lon="-71.64861">
        <ele>211.62744140625</ele>
        <time>2016-03-24T19:25:12Z</time>
      </trkpt>
      <trkpt lat="46.87178" lon="-71.64856">
        <ele>211.62744140625</ele>
        <time>2016-03-24T19:25:17Z</time>
      </trkpt>
      <trkpt lat="46.87163" lon="-71.64839">
        <ele>211.62744140625</ele>
        <time>2016-03-24T19:25:33Z</time>
      </trkpt>
      <trkpt lat="46.87146" lon="-71.6482">
        <ele>211.62744140625</ele>
        <time>2016-03-24T19:25:50Z</time>
      </trkpt>
      <trkpt lat="46.87128" lon="-71.648">
        <ele>211.62744140625</ele>
        <time>2016-03-24T19:26:08Z</time>
      </trkpt>
      <trkpt lat="46.87114" lon="-71.64777">
        <ele>211.14672851562</ele>
        <time>2016-03-24T19:26:24Z</time>
      </trkpt>
      <trkpt lat="46.87102" lon="-71.64744">
        <ele>211.62744140625</ele>
        <time>2016-03-24T19:26:42Z</time>
      </trkpt>
      <trkpt lat="46.87095" lon="-71.64723">
        <ele>211.14672851562</ele>
        <time>2016-03-24T19:26:58Z</time>
      </trkpt>
      <trkpt lat="46.87084" lon="-71.64714">
        <ele>209.22412109375</ele>
        <time>2016-03-24T19:27:08Z</time>
      </trkpt>
      <trkpt lat="46.87071" lon="-71.64697">
        <ele>207.30139160156</ele>
        <time>2016-03-24T19:27:23Z</time>
      </trkpt>
      <trkpt lat="46.87058" lon="-71.64683">
        <ele>203.93688964844</ele>
        <time>2016-03-24T19:27:37Z</time>
      </trkpt>
      <trkpt lat="46.87051" lon="-71.64652">
        <ele>203.45617675781</ele>
        <time>2016-03-24T19:27:53Z</time>
      </trkpt>
      <trkpt lat="46.87046" lon="-71.64625">
        <ele>204.41748046875</ele>
        <time>2016-03-24T19:28:08Z</time>
      </trkpt>
      <trkpt lat="46.8704" lon="-71.64597">
        <ele>203.93688964844</ele>
        <time>2016-03-24T19:28:22Z</time>
      </trkpt>
      <trkpt lat="46.87039" lon="-71.64579">
        <ele>205.37878417969</ele>
        <time>2016-03-24T19:28:32Z</time>
      </trkpt>
      <trkpt lat="46.87036" lon="-71.64562">
        <ele>203.93688964844</ele>
        <time>2016-03-24T19:28:44Z</time>
      </trkpt>
      <trkpt lat="46.87035" lon="-71.64559">
        <ele>203.45617675781</ele>
        <time>2016-03-24T19:28:46Z</time>
      </trkpt>
      <trkpt lat="46.87025" lon="-71.64524">
        <ele>202.97546386719</ele>
        <time>2016-03-24T19:29:03Z</time>
      </trkpt>
      <trkpt lat="46.87022" lon="-71.64493">
        <ele>203.93688964844</ele>
        <time>2016-03-24T19:29:18Z</time>
      </trkpt>
      <trkpt lat="46.87021" lon="-71.64468">
        <ele>202.49487304688</ele>
        <time>2016-03-24T19:29:35Z</time>
      </trkpt>
      <trkpt lat="46.87014" lon="-71.64436">
        <ele>201.53356933594</ele>
        <time>2016-03-24T19:29:53Z</time>
      </trkpt>
      <trkpt lat="46.87011" lon="-71.64409">
        <ele>201.05285644531</ele>
        <time>2016-03-24T19:30:07Z</time>
      </trkpt>
      <trkpt lat="46.8701" lon="-71.64402">
        <ele>201.53356933594</ele>
        <time>2016-03-24T19:30:11Z</time>
      </trkpt>
      <trkpt lat="46.87009" lon="-71.64394">
        <ele>201.53356933594</ele>
        <time>2016-03-24T19:30:15Z</time>
      </trkpt>
      <trkpt lat="46.87004" lon="-71.64362">
        <ele>201.05285644531</ele>
        <time>2016-03-24T19:30:30Z</time>
      </trkpt>
      <trkpt lat="46.87003" lon="-71.64357">
        <ele>201.05285644531</ele>
        <time>2016-03-24T19:30:33Z</time>
      </trkpt>
      <trkpt lat="46.87002" lon="-71.64353">
        <ele>201.05285644531</ele>
        <time>2016-03-24T19:30:36Z</time>
      </trkpt>
      <trkpt lat="46.86986" lon="-71.64348">
        <ele>198.1689453125</ele>
        <time>2016-03-24T19:30:53Z</time>
      </trkpt>
      <trkpt lat="46.86977" lon="-71.64346">
        <ele>195.28491210938</ele>
        <time>2016-03-24T19:31:04Z</time>
      </trkpt>
      <trkpt lat="46.86964" lon="-71.64332">
        <ele>193.84301757812</ele>
        <time>2016-03-24T19:31:20Z</time>
      </trkpt>
      <trkpt lat="46.86961" lon="-71.64305">
        <ele>193.84301757812</ele>
        <time>2016-03-24T19:31:36Z</time>
      </trkpt>
      <trkpt lat="46.86961" lon="-71.64304">
        <ele>192.88171386719</ele>
        <time>2016-03-24T19:31:47Z</time>
      </trkpt>
    </trkseg>
  </trk>
</gpx>